createdAt,value
2023-02-13T00:01:17.537Z,19
2023-02-13T00:03:01.065Z,19
2023-02-13T00:04:44.801Z,19
2023-02-13T00:06:28.474Z,19
2023-02-13T00:08:12.279Z,19
2023-02-13T00:09:56.070Z,18.9
2023-02-13T00:11:39.774Z,18.9
2023-02-13T00:13:23.498Z,18.9
2023-02-13T00:15:07.086Z,18.9
2023-02-13T00:16:50.853Z,18.9
2023-02-13T00:18:34.547Z,18.9
2023-02-13T00:20:18.266Z,18.9
2023-02-13T00:22:02.051Z,18.9
2023-02-13T00:23:45.686Z,18.9
2023-02-13T00:25:29.366Z,18.9
2023-02-13T00:27:13.058Z,18.9
2023-02-13T00:28:56.755Z,18.9
2023-02-13T00:30:40.499Z,18.9
2023-02-13T00:32:24.153Z,18.9
2023-02-13T00:34:07.848Z,18.9
2023-02-13T00:35:51.514Z,18.9
2023-02-13T00:37:35.244Z,18.9
2023-02-13T00:39:18.978Z,18.9
2023-02-13T00:41:02.615Z,18.9
2023-02-13T00:42:46.368Z,18.9
2023-02-13T00:44:30.065Z,18.9
2023-02-13T00:46:13.779Z,18.9
2023-02-13T00:47:57.371Z,18.9
2023-02-13T00:49:41.184Z,18.9
2023-02-13T00:51:24.711Z,18.9
2023-02-13T00:53:08.508Z,18.9
2023-02-13T00:54:52.294Z,18.9
2023-02-13T00:56:35.804Z,18.9
2023-02-13T00:58:19.738Z,18.9
2023-02-13T01:00:03.347Z,18.9
2023-02-13T01:01:47.113Z,18.9
2023-02-13T01:03:30.648Z,18.9
2023-02-13T01:05:14.380Z,18.9
2023-02-13T01:06:58.038Z,18.9
2023-02-13T01:08:41.939Z,18.9
2023-02-13T01:10:25.557Z,18.9
2023-02-13T01:12:09.130Z,18.9
2023-02-13T01:13:53.038Z,18.9
2023-02-13T01:15:36.760Z,18.9
2023-02-13T01:17:20.452Z,18.9
2023-02-13T01:19:04.135Z,18.9
2023-02-13T01:20:47.648Z,18.9
2023-02-13T01:22:31.562Z,18.9
2023-02-13T01:24:15.057Z,18.9
2023-02-13T01:25:58.935Z,18.9
2023-02-13T01:27:42.622Z,18.9
2023-02-13T01:29:26.238Z,18.9
2023-02-13T01:31:10.054Z,18.9
2023-02-13T01:32:53.721Z,18.9
2023-02-13T01:34:37.402Z,18.9
2023-02-13T01:36:21.170Z,18.9
2023-02-13T01:38:04.859Z,18.9
2023-02-13T01:39:48.357Z,18.9
2023-02-13T01:41:32.237Z,18.9
2023-02-13T01:43:15.948Z,18.9
2023-02-13T01:44:59.648Z,18.9
2023-02-13T01:46:43.332Z,18.9
2023-02-13T01:48:27.012Z,18.9
2023-02-13T01:50:10.752Z,18.9
2023-02-13T01:51:54.418Z,18.9
2023-02-13T01:53:38.163Z,18.9
2023-02-13T01:55:21.694Z,18.9
2023-02-13T01:57:05.441Z,18.9
2023-02-13T01:58:49.094Z,18.9
2023-02-13T02:00:32.918Z,18.9
2023-02-13T02:02:16.632Z,18.9
2023-02-13T02:04:00.197Z,18.9
2023-02-13T02:05:44.052Z,18.9
2023-02-13T02:07:27.636Z,18.9
2023-02-13T02:09:11.301Z,18.9
2023-02-13T02:10:55.224Z,18.9
2023-02-13T02:12:38.702Z,18.9
2023-02-13T02:14:22.578Z,18.9
2023-02-13T02:16:06.196Z,18.9
2023-02-13T02:17:49.932Z,18.9
2023-02-13T02:19:33.668Z,18.8
2023-02-13T02:21:17.411Z,18.8
2023-02-13T02:23:01.411Z,18.8
2023-02-13T02:24:44.678Z,18.8
2023-02-13T02:26:28.327Z,18.8
2023-02-13T02:28:12.019Z,18.8
2023-02-13T02:29:55.736Z,18.8
2023-02-13T02:31:39.519Z,18.8
2023-02-13T02:33:23.145Z,18.8
2023-02-13T02:35:06.818Z,18.8
2023-02-13T02:36:50.580Z,18.8
2023-02-13T02:38:34.229Z,18.8
2023-02-13T02:40:18.061Z,18.8
2023-02-13T02:42:01.733Z,18.8
2023-02-13T02:43:45.372Z,18.8
2023-02-13T02:45:29.057Z,18.8
2023-02-13T02:47:12.736Z,18.8
2023-02-13T02:48:56.527Z,18.8
2023-02-13T02:50:40.194Z,18.8
2023-02-13T02:52:23.853Z,18.8
2023-02-13T02:54:07.544Z,18.8
2023-02-13T02:55:51.335Z,18.8
2023-02-13T02:57:34.950Z,18.8
2023-02-13T02:59:18.716Z,18.8
2023-02-13T03:02:46.073Z,18.8
2023-02-13T03:04:29.772Z,18.8
2023-02-13T03:06:13.466Z,18.8
2023-02-13T03:07:57.163Z,18.8
2023-02-13T03:09:40.875Z,18.8
2023-02-13T03:11:24.544Z,18.8
2023-02-13T03:13:08.379Z,18.8
2023-02-13T03:14:51.976Z,18.8
2023-02-13T03:16:35.669Z,18.8
2023-02-13T03:18:19.391Z,18.8
2023-02-13T03:20:03.062Z,18.8
2023-02-13T03:21:46.784Z,18.8
2023-02-13T03:23:30.496Z,18.8
2023-02-13T03:25:14.184Z,18.8
2023-02-13T03:26:57.868Z,18.8
2023-02-13T03:28:41.644Z,18.8
2023-02-13T03:30:25.474Z,18.8
2023-02-13T03:32:08.974Z,18.8
2023-02-13T03:33:52.680Z,18.8
2023-02-13T03:35:36.381Z,18.8
2023-02-13T03:37:20.157Z,18.8
2023-02-13T03:39:03.793Z,18.8
2023-02-13T03:40:47.588Z,18.8
2023-02-13T03:42:31.290Z,18.8
2023-02-13T03:44:14.891Z,18.8
2023-02-13T03:45:58.612Z,18.8
2023-02-13T03:47:42.313Z,18.8
2023-02-13T03:49:26.022Z,18.8
2023-02-13T03:51:09.706Z,18.8
2023-02-13T03:52:53.509Z,18.8
2023-02-13T03:54:37.154Z,18.8
2023-02-13T03:56:20.928Z,18.8
2023-02-13T03:58:04.516Z,18.8
2023-02-13T03:59:48.214Z,18.8
2023-02-13T04:01:32.042Z,18.8
2023-02-13T04:03:15.637Z,18.8
2023-02-13T04:04:59.372Z,18.8
2023-02-13T04:06:43.025Z,18.8
2023-02-13T04:08:26.786Z,18.8
2023-02-13T04:10:10.443Z,18.8
2023-02-13T04:11:54.193Z,18.8
2023-02-13T04:13:37.828Z,18.8
2023-02-13T04:15:21.537Z,18.8
2023-02-13T04:17:05.293Z,18.8
2023-02-13T04:18:48.936Z,18.8
2023-02-13T04:20:32.761Z,18.8
2023-02-13T04:22:16.356Z,18.8
2023-02-13T04:24:00.081Z,18.8
2023-02-13T04:25:43.755Z,18.8
2023-02-13T04:27:27.462Z,18.8
2023-02-13T04:29:11.148Z,18.8
2023-02-13T04:30:54.859Z,18.8
2023-02-13T04:32:38.570Z,18.8
2023-02-13T04:34:22.295Z,18.7
2023-02-13T04:36:05.954Z,18.8
2023-02-13T04:37:49.667Z,18.7
2023-02-13T04:39:33.413Z,18.8
2023-02-13T04:41:17.211Z,18.7
2023-02-13T04:43:00.822Z,18.8
2023-02-13T04:44:44.467Z,18.8
2023-02-13T04:46:28.304Z,18.7
2023-02-13T04:48:11.883Z,18.8
2023-02-13T04:49:55.577Z,18.7
2023-02-13T04:51:39.367Z,18.7
2023-02-13T04:53:23.049Z,18.7
2023-02-13T04:55:06.758Z,18.7
2023-02-13T04:56:50.417Z,18.7
2023-02-13T04:58:34.077Z,18.7
2023-02-13T05:00:17.815Z,18.7
2023-02-13T05:02:01.573Z,18.7
2023-02-13T05:03:45.190Z,18.7
2023-02-13T05:05:28.921Z,18.7
2023-02-13T05:07:12.579Z,18.7
2023-02-13T05:08:56.300Z,18.7
2023-02-13T05:10:40.025Z,18.7
2023-02-13T05:12:23.744Z,18.7
2023-02-13T05:14:07.415Z,18.7
2023-02-13T05:15:51.110Z,18.7
2023-02-13T05:17:34.812Z,18.7
2023-02-13T05:19:18.594Z,18.7
2023-02-13T05:21:02.270Z,18.7
2023-02-13T05:22:45.957Z,18.7
2023-02-13T05:24:29.604Z,18.7
2023-02-13T05:26:13.362Z,18.7
2023-02-13T05:27:57.014Z,18.7
2023-02-13T05:29:40.781Z,18.7
2023-02-13T05:31:24.623Z,18.7
2023-02-13T05:33:08.227Z,18.7
2023-02-13T05:34:51.810Z,18.7
2023-02-13T05:36:35.579Z,18.7
2023-02-13T05:38:19.218Z,18.7
2023-02-13T05:40:03.177Z,18.7
2023-02-13T05:41:46.612Z,18.7
2023-02-13T05:43:30.505Z,18.7
2023-02-13T05:45:14.142Z,18.8
2023-02-13T05:46:57.837Z,18.8
2023-02-13T05:48:41.502Z,18.8
2023-02-13T05:50:25.153Z,18.8
2023-02-13T05:52:09.028Z,18.8
2023-02-13T05:53:52.569Z,18.8
2023-02-13T05:55:36.258Z,18.8
2023-02-13T05:57:19.986Z,18.8
2023-02-13T05:59:03.648Z,18.8
2023-02-13T06:00:47.352Z,18.8
2023-02-13T06:02:31.093Z,18.8
2023-02-13T06:04:14.758Z,18.8
2023-02-13T06:05:58.457Z,18.8
2023-02-13T06:07:42.156Z,18.8
2023-02-13T06:09:25.900Z,18.8
2023-02-13T06:11:09.698Z,18.8
2023-02-13T06:12:53.320Z,18.8
2023-02-13T06:14:37.079Z,18.8
2023-02-13T06:16:20.691Z,18.8
2023-02-13T06:18:04.370Z,18.8
2023-02-13T06:19:48.077Z,18.9
2023-02-13T06:21:31.890Z,18.9
2023-02-13T06:23:15.483Z,18.9
2023-02-13T06:24:59.281Z,18.9
2023-02-13T06:26:43.031Z,18.9
2023-02-13T06:28:26.730Z,18.9
2023-02-13T06:30:10.323Z,19
2023-02-13T06:31:54.053Z,19
2023-02-13T06:33:37.708Z,19
2023-02-13T06:35:21.397Z,19
2023-02-13T06:37:05.113Z,19.1
2023-02-13T06:38:48.985Z,19.1
2023-02-13T06:40:32.775Z,19.1
2023-02-13T06:42:16.364Z,19.1
2023-02-13T06:44:00.039Z,19.1
2023-02-13T06:45:43.763Z,19.1
2023-02-13T06:47:27.481Z,19.2
2023-02-13T06:49:11.026Z,19.2
2023-02-13T06:50:54.710Z,19.2
2023-02-13T06:52:38.545Z,19.2
2023-02-13T06:54:22.105Z,19.2
2023-02-13T06:56:05.811Z,19.2
2023-02-13T06:57:49.674Z,19.2
2023-02-13T06:59:33.419Z,19.2
2023-02-13T07:01:16.977Z,19.2
2023-02-13T07:03:00.747Z,19.2
2023-02-13T07:04:44.502Z,19.2
2023-02-13T07:06:28.039Z,19.2
2023-02-13T07:08:11.886Z,19.2
2023-02-13T07:09:55.593Z,19.2
2023-02-13T07:11:39.302Z,19.3
2023-02-13T07:13:23.064Z,19.3
2023-02-13T07:15:06.559Z,19.3
2023-02-13T07:16:50.410Z,19.3
2023-02-13T07:18:34.024Z,19.3
2023-02-13T07:20:17.811Z,19.3
2023-02-13T07:22:01.416Z,19.3
2023-02-13T07:23:45.176Z,19.2
2023-02-13T07:25:28.809Z,19.3
2023-02-13T07:27:12.567Z,19.3
2023-02-13T07:28:56.250Z,19.3
2023-02-13T07:30:40.021Z,19.3
2023-02-13T07:32:23.719Z,19.3
2023-02-13T07:34:07.462Z,19.3
2023-02-13T07:35:51.019Z,19.3
2023-02-13T07:37:34.827Z,19.3
2023-02-13T07:39:18.508Z,19.3
2023-02-13T07:41:02.132Z,19.3
2023-02-13T07:42:45.829Z,19.3
2023-02-13T07:44:29.601Z,19.3
2023-02-13T07:46:13.369Z,19.3
2023-02-13T07:47:56.926Z,19.3
2023-02-13T07:49:40.589Z,19.3
2023-02-13T07:51:24.391Z,19.3
2023-02-13T07:53:08.093Z,19.4
2023-02-13T07:54:51.829Z,19.5
2023-02-13T07:56:35.489Z,19.5
2023-02-13T07:58:19.128Z,19.6
2023-02-13T08:00:02.911Z,19.6
2023-02-13T08:01:46.602Z,19.6
2023-02-13T08:03:30.383Z,19.6
2023-02-13T08:05:14.081Z,19.6
2023-02-13T08:06:57.782Z,19.7
2023-02-13T08:08:41.460Z,19.7
2023-02-13T08:10:25.131Z,19.7
2023-02-13T08:12:08.793Z,19.7
2023-02-13T08:13:52.542Z,19.7
2023-02-13T08:15:36.196Z,19.6
2023-02-13T08:17:19.871Z,19.6
2023-02-13T08:19:03.574Z,19.7
2023-02-13T08:20:47.309Z,19.7
2023-02-13T08:22:31.040Z,19.6
2023-02-13T08:24:14.765Z,19.6
2023-02-13T08:25:58.426Z,19.6
2023-02-13T08:27:42.040Z,19.7
2023-02-13T08:29:25.751Z,19.7
2023-02-13T08:31:09.425Z,19.7
2023-02-13T08:32:53.141Z,19.7
2023-02-13T08:34:36.848Z,19.7
2023-02-13T08:36:20.721Z,19.7
2023-02-13T08:38:04.419Z,19.7
2023-02-13T08:39:48.098Z,19.8
2023-02-13T08:41:31.804Z,19.8
2023-02-13T08:43:15.338Z,19.8
2023-02-13T08:44:59.167Z,19.8
2023-02-13T08:46:42.940Z,19.8
2023-02-13T08:48:26.510Z,19.9
2023-02-13T08:50:10.282Z,19.9
2023-02-13T08:51:53.959Z,19.9
2023-02-13T08:53:37.643Z,19.9
2023-02-13T08:55:21.392Z,19.9
2023-02-13T08:57:04.985Z,20
2023-02-13T08:58:48.740Z,20
2023-02-13T09:00:32.422Z,20
2023-02-13T09:02:16.211Z,20.1
2023-02-13T09:03:59.958Z,20.1
2023-02-13T09:05:43.539Z,20.1
2023-02-13T09:07:27.205Z,20.1
2023-02-13T09:09:10.920Z,20.1
2023-02-13T09:10:54.575Z,20.2
2023-02-13T09:12:38.289Z,20.2
2023-02-13T09:14:21.957Z,20.2
2023-02-13T09:16:05.696Z,20.3
2023-02-13T09:17:49.371Z,20.3
2023-02-13T09:19:33.107Z,20.3
2023-02-13T09:21:16.793Z,20.3
2023-02-13T09:23:00.486Z,20.4
2023-02-13T09:24:44.198Z,20.4
2023-02-13T09:26:27.892Z,20.4
2023-02-13T09:28:11.781Z,20.4
2023-02-13T09:29:55.423Z,20.5
2023-02-13T09:31:39.135Z,20.5
2023-02-13T09:33:22.702Z,20.5
2023-02-13T09:35:06.391Z,20.6
2023-02-13T09:36:50.108Z,20.6
2023-02-13T09:38:33.801Z,20.6
2023-02-13T09:40:17.518Z,20.6
2023-02-13T09:42:01.218Z,20.7
2023-02-13T09:43:44.922Z,20.7
2023-02-13T09:45:28.621Z,20.7
2023-02-13T09:47:12.336Z,20.8
2023-02-13T09:48:56.064Z,20.8
2023-02-13T09:50:39.731Z,20.8
2023-02-13T09:52:23.415Z,20.8
2023-02-13T09:54:07.120Z,20.9
2023-02-13T09:55:50.808Z,20.9
2023-02-13T09:57:34.518Z,20.9
2023-02-13T09:59:18.221Z,21
2023-02-13T10:01:01.922Z,21
2023-02-13T10:02:45.618Z,21
2023-02-13T10:04:29.333Z,21
2023-02-13T10:06:13.032Z,21.1
2023-02-13T10:07:56.894Z,21.1
2023-02-13T10:09:40.452Z,21.2
2023-02-13T10:11:24.263Z,21.2
2023-02-13T10:13:07.834Z,21.2
2023-02-13T10:14:51.574Z,21.3
2023-02-13T10:16:35.224Z,21.3
2023-02-13T10:18:18.916Z,21.4
2023-02-13T10:20:02.630Z,21.4
2023-02-13T10:21:46.329Z,21.4
2023-02-13T10:23:30.032Z,21.4
2023-02-13T10:25:13.727Z,21.5
2023-02-13T10:26:57.437Z,21.5
2023-02-13T10:28:41.133Z,21.6
2023-02-13T10:30:26.755Z,21.6
2023-02-13T10:32:08.541Z,21.6
2023-02-13T10:33:52.252Z,21.7
2023-02-13T10:35:35.972Z,21.7
2023-02-13T10:37:19.646Z,21.7
2023-02-13T10:39:03.395Z,21.7
2023-02-13T10:40:47.062Z,21.8
2023-02-13T10:42:30.763Z,21.8
2023-02-13T10:44:14.475Z,21.8
2023-02-13T10:45:58.177Z,21.8
2023-02-13T10:47:41.872Z,21.8
2023-02-13T10:49:25.587Z,21.8
2023-02-13T10:51:09.261Z,21.8
2023-02-13T10:52:52.984Z,21.9
2023-02-13T10:54:36.785Z,21.9
2023-02-13T10:56:20.514Z,21.9
2023-02-13T10:58:04.086Z,22
2023-02-13T10:59:47.783Z,22
2023-02-13T11:01:31.490Z,22
2023-02-13T11:03:15.213Z,22
2023-02-13T11:04:58.912Z,22
2023-02-13T11:06:42.622Z,22
2023-02-13T11:08:26.378Z,22
2023-02-13T11:10:10.005Z,22
2023-02-13T11:11:53.711Z,22
2023-02-13T11:13:37.386Z,22
2023-02-13T11:15:21.094Z,22
2023-02-13T11:17:04.795Z,22
2023-02-13T11:18:48.521Z,22
2023-02-13T11:20:32.200Z,22
2023-02-13T11:22:15.908Z,22
2023-02-13T11:23:59.610Z,22
2023-02-13T11:25:43.309Z,22
2023-02-13T11:27:26.986Z,22
2023-02-13T11:29:10.692Z,22
2023-02-13T11:30:54.401Z,22
2023-02-13T11:32:38.115Z,22
2023-02-13T11:34:21.812Z,22
2023-02-13T11:36:05.493Z,22
2023-02-13T11:37:49.251Z,22
2023-02-13T11:39:32.922Z,22
2023-02-13T11:41:16.625Z,22
2023-02-13T11:43:00.458Z,22
2023-02-13T11:44:44.136Z,22
2023-02-13T11:46:27.833Z,22
2023-02-13T11:48:11.580Z,22
2023-02-13T11:49:55.145Z,22
2023-02-13T11:51:38.820Z,22
2023-02-13T11:53:22.553Z,22
2023-02-13T11:55:06.246Z,22
2023-02-13T11:56:49.924Z,22
2023-02-13T11:58:33.630Z,22
2023-02-13T12:00:17.330Z,22
2023-02-13T17:01:02.173Z,19.7
2023-02-13T18:32:39.137Z,19.8
2023-02-13T18:34:21.417Z,19.9
2023-02-13T18:36:05.164Z,19.8
2023-02-13T18:37:48.883Z,19.8
2023-02-13T18:39:32.462Z,19.8
2023-02-13T18:41:16.184Z,19.8
2023-02-13T18:43:00.010Z,19.8
2023-02-13T18:44:43.604Z,19.8
2023-02-13T18:46:27.263Z,19.8
2023-02-13T18:48:11.008Z,19.8
2023-02-13T18:49:54.746Z,19.8
2023-02-13T18:51:38.406Z,19.8
2023-02-13T18:53:22.080Z,19.8
2023-02-13T18:55:05.863Z,19.8
2023-02-13T18:56:49.489Z,19.8
2023-02-13T18:58:33.177Z,19.8
2023-02-13T19:00:16.878Z,19.8
2023-02-13T19:02:00.616Z,19.8
2023-02-13T19:03:44.297Z,19.8
2023-02-13T19:05:27.968Z,19.8
2023-02-13T19:07:11.681Z,19.8
2023-02-13T19:08:55.450Z,19.8
2023-02-13T19:10:39.080Z,19.8
2023-02-13T19:12:22.804Z,19.8
2023-02-13T19:14:06.499Z,19.8
2023-02-13T19:15:50.193Z,19.8
2023-02-13T19:17:33.901Z,19.8
2023-02-13T19:19:17.644Z,19.8
2023-02-13T19:21:01.334Z,19.8
2023-02-13T19:22:45.033Z,19.8
2023-02-13T19:24:28.765Z,19.8
2023-02-13T19:26:12.425Z,19.7
2023-02-13T19:27:56.158Z,19.7
2023-02-13T19:29:39.838Z,19.7
2023-02-13T19:31:23.538Z,19.7
2023-02-13T19:33:07.281Z,19.7
2023-02-13T19:34:51.007Z,19.7
2023-02-13T19:36:34.642Z,19.7
2023-02-13T19:38:18.340Z,19.7
2023-02-13T19:40:02.097Z,19.7
2023-02-13T19:41:45.857Z,19.6
2023-02-13T19:43:29.451Z,19.6
2023-02-13T19:45:13.140Z,19.6
2023-02-13T19:46:56.923Z,19.6
2023-02-13T19:48:40.543Z,19.6
2023-02-13T19:50:24.237Z,19.6
2023-02-13T19:52:08.026Z,19.6
2023-02-13T19:53:51.654Z,19.6
2023-02-13T19:55:35.344Z,19.6
2023-02-13T19:57:19.063Z,19.6
2023-02-13T19:59:02.752Z,19.6
2023-02-13T20:00:46.455Z,19.6
2023-02-13T20:02:30.150Z,19.6
2023-02-13T20:04:13.862Z,19.6
2023-02-13T20:05:57.598Z,19.6
2023-02-13T20:07:41.245Z,19.5
2023-02-13T20:09:25.002Z,19.5
2023-02-13T20:11:08.640Z,19.5
2023-02-13T20:12:52.346Z,19.5
2023-02-13T20:14:36.070Z,19.5
2023-02-13T20:16:19.773Z,19.5
2023-02-13T20:18:03.470Z,19.5
2023-02-13T20:19:47.174Z,19.5
2023-02-13T20:21:31.040Z,19.5
2023-02-13T20:23:14.786Z,19.5
2023-02-13T20:24:58.280Z,19.5
2023-02-13T20:26:42.146Z,19.5
2023-02-13T20:28:25.863Z,19.5
2023-02-13T20:30:09.524Z,19.5
2023-02-13T20:31:53.089Z,19.5
2023-02-13T20:33:36.914Z,19.5
2023-02-13T20:37:04.394Z,19.5
2023-02-13T20:38:48.053Z,19.5
2023-02-13T20:40:31.771Z,19.5
2023-02-13T20:42:15.401Z,19.5
2023-02-13T20:43:59.006Z,19.5
2023-02-13T20:45:42.945Z,19.5
2023-02-13T20:47:26.509Z,19.4
2023-02-13T20:49:10.322Z,19.4
2023-02-13T20:50:53.889Z,19.4
2023-02-13T20:52:37.662Z,19.4
2023-02-13T20:54:21.430Z,19.4
2023-02-13T20:56:05.061Z,19.5
2023-02-13T20:57:48.794Z,19.4
2023-02-13T20:59:32.309Z,19.4
2023-02-13T21:01:16.218Z,19.4
2023-02-13T21:02:59.718Z,19.4
2023-02-13T21:04:43.546Z,19.4
2023-02-13T21:06:27.232Z,19.4
2023-02-13T21:08:10.827Z,19.4
2023-02-13T21:09:54.516Z,19.4
2023-02-13T21:11:38.226Z,19.4
2023-02-13T21:13:21.925Z,19.4
2023-02-13T21:15:05.629Z,19.4
2023-02-13T21:16:49.324Z,19.4
2023-02-13T21:18:33.024Z,19.4
2023-02-13T21:20:16.731Z,19.4
2023-02-13T21:22:00.436Z,19.4
2023-02-13T21:23:44.140Z,19.4
2023-02-13T21:25:27.838Z,19.4
2023-02-13T21:27:11.541Z,19.4
2023-02-13T21:28:55.247Z,19.3
2023-02-13T21:30:39.010Z,19.3
2023-02-13T21:32:22.703Z,19.3
2023-02-13T21:34:06.377Z,19.3
2023-02-13T21:35:50.088Z,19.3
2023-02-13T21:37:33.793Z,19.3
2023-02-13T21:39:17.497Z,19.3
2023-02-13T21:41:01.214Z,19.3
2023-02-13T21:42:44.869Z,19.3
2023-02-13T21:44:28.579Z,19.3
2023-02-13T21:46:12.272Z,19.3
2023-02-13T21:47:55.971Z,19.3
2023-02-13T21:49:39.724Z,19.3
2023-02-13T21:51:23.403Z,19.3
2023-02-13T21:53:07.094Z,19.3
2023-02-13T21:54:50.787Z,19.3
2023-02-13T21:56:34.491Z,19.2
2023-02-13T21:58:18.204Z,19.2
2023-02-13T22:00:01.896Z,19.2
2023-02-13T22:01:45.595Z,19.2
2023-02-13T22:03:29.298Z,19.2
2023-02-13T22:05:13.093Z,19.2
2023-02-13T22:06:56.697Z,19.2
2023-02-13T22:08:40.477Z,19.2
2023-02-13T22:10:24.199Z,19.2
2023-02-13T22:12:07.811Z,19.2
2023-02-13T22:13:51.516Z,19.2
2023-02-13T22:15:35.229Z,19.2
2023-02-13T22:17:18.903Z,19.2
2023-02-13T22:19:02.619Z,19.2
2023-02-13T22:20:46.320Z,19.2
2023-02-13T22:22:30.023Z,19.2
2023-02-13T22:24:13.712Z,19.2
2023-02-13T22:25:57.412Z,19.2
2023-02-13T22:27:41.126Z,19.2
2023-02-13T22:29:24.821Z,19.1
2023-02-13T22:31:08.556Z,19.1
2023-02-13T22:32:52.226Z,19.1
2023-02-13T22:34:35.960Z,19.1
2023-02-13T22:36:19.632Z,19.1
2023-02-13T22:38:03.351Z,19.1
2023-02-13T22:39:47.050Z,19.1
2023-02-13T22:41:30.749Z,19.1
2023-02-13T22:43:14.452Z,19.1
2023-02-13T22:44:58.174Z,19.1
2023-02-13T22:46:41.837Z,19.1
2023-02-13T22:48:25.554Z,19.1
2023-02-13T22:51:52.972Z,19.1
2023-02-13T22:53:36.644Z,19.1
2023-02-13T22:55:20.356Z,19.1
2023-02-13T22:57:04.046Z,19.1
2023-02-13T22:58:47.769Z,19.1
2023-02-13T23:00:31.456Z,19.1
2023-02-13T23:02:15.144Z,19.1
2023-02-13T23:03:58.852Z,19.1
2023-02-13T23:05:42.692Z,19.1
2023-02-13T23:07:26.273Z,19
2023-02-13T23:09:09.981Z,19
2023-02-13T23:10:53.660Z,19
2023-02-13T23:12:37.419Z,19
2023-02-13T23:14:21.094Z,19
2023-02-13T23:16:04.764Z,19
2023-02-13T23:17:48.464Z,19
2023-02-13T23:19:32.168Z,19
2023-02-13T23:21:15.876Z,18.9
2023-02-13T23:22:59.576Z,18.9
2023-02-13T23:24:43.311Z,18.9
2023-02-13T23:26:26.993Z,18.9
2023-02-13T23:28:10.712Z,18.9
2023-02-13T23:29:54.398Z,18.9
2023-02-13T23:31:38.093Z,18.9
2023-02-13T23:33:21.795Z,18.9
2023-02-13T23:35:05.499Z,18.9
2023-02-13T23:36:49.198Z,18.9
2023-02-13T23:38:32.931Z,18.9
2023-02-13T23:40:16.601Z,18.8
2023-02-13T23:42:00.306Z,18.8
2023-02-13T23:43:44.062Z,18.8
2023-02-13T23:45:27.705Z,18.8
2023-02-13T23:47:11.406Z,18.8
2023-02-13T23:48:55.114Z,18.8
2023-02-13T23:50:38.820Z,18.8
2023-02-13T23:52:22.510Z,18.8
2023-02-13T23:54:06.227Z,18.8
2023-02-13T23:55:49.918Z,18.8
2023-02-13T23:57:33.616Z,18.8
2023-02-13T23:59:17.339Z,18.8
